K4BM

Wilkerson Pass Airport

Wilkerson Pass, Colorado, USA
METAR K4BM 170554Z AUTO 26005KT 10SM SCT100 M07/M17 A2992 RMK AO2 LTG DSNT NW
Observed Flight Rules
Dec-17 @ 05:54 UTC (20 minutes ago) Visual Flight Rules
Wind Visibility Clouds
260° at 5 knots 10 miles
  • Scattered at 10,000' AGL
Temperatures Readings
Current -7°C / 19°F
Dewpoint -17°C / 1°F
Humidity 45%
Altimeter 29.92" Hg
Pressure 1013 hPa
Elevation 3438
METAR K4BM 170554Z AUTO 26005KT 10SM SCT100 M07/M17 A2992 RMK AO2 LTG DSNT NW
Observed Flight Rules
Dec-17 @ 05:54 UTC
(20 minutes ago)
VFR
Wind Visibility
260° at 5 knots 10 miles
Clouds
  • Scattered at 10,000' AGL
Temperature Dewpoint
-7°C / 19°F -17°C / 1°F
Humidity Altimeter Pressure
45% 29.92" Hg 1013 hPa